sensor_id;sensor_type;location;lat;lon;timestamp;P1;durP1;ratioP1;P2;durP2;ratioP2
34982;SDS011;21187;50.976;13.720;2024-03-25T00:00:26;3.63;;;2.10;;
34982;SDS011;21187;50.976;13.720;2024-03-25T00:05:27;3.30;;;2.03;;
34982;SDS011;21187;50.976;13.720;2024-03-25T00:10:28;6.43;;;2.47;;
34982;SDS011;21187;50.976;13.720;2024-03-25T00:15:28;6.45;;;2.90;;
34982;SDS011;21187;50.976;13.720;2024-03-25T00:20:29;9.85;;;2.60;;
34982;SDS011;21187;50.976;13.720;2024-03-25T00:25:30;7.13;;;2.53;;
34982;SDS011;21187;50.976;13.720;2024-03-25T00:30:31;5.68;;;2.10;;
34982;SDS011;21187;50.976;13.720;2024-03-25T00:35:32;3.90;;;2.30;;
34982;SDS011;21187;50.976;13.720;2024-03-25T00:40:33;3.15;;;1.90;;
34982;SDS011;21187;50.976;13.720;2024-03-25T00:45:34;4.82;;;2.22;;
34982;SDS011;21187;50.976;13.720;2024-03-25T00:50:35;2.83;;;1.90;;
34982;SDS011;21187;50.976;13.720;2024-03-25T00:55:36;4.93;;;2.13;;
34982;SDS011;21187;50.976;13.720;2024-03-25T01:00:37;5.30;;;2.53;;
34982;SDS011;21187;50.976;13.720;2024-03-25T01:05:38;3.92;;;2.00;;
34982;SDS011;21187;50.976;13.720;2024-03-25T01:10:38;3.17;;;2.15;;
34982;SDS011;21187;50.976;13.720;2024-03-25T01:15:39;6.07;;;1.85;;
34982;SDS011;21187;50.976;13.720;2024-03-25T01:20:40;5.20;;;2.45;;
34982;SDS011;21187;50.976;13.720;2024-03-25T01:25:41;6.63;;;2.03;;
34982;SDS011;21187;50.976;13.720;2024-03-25T01:30:41;2.97;;;1.63;;
34982;SDS011;21187;50.976;13.720;2024-03-25T01:35:44;8.02;;;1.98;;
34982;SDS011;21187;50.976;13.720;2024-03-25T01:40:44;4.28;;;1.40;;
34982;SDS011;21187;50.976;13.720;2024-03-25T01:45:45;2.38;;;1.10;;
34982;SDS011;21187;50.976;13.720;2024-03-25T01:50:46;1.23;;;1.13;;
34982;SDS011;21187;50.976;13.720;2024-03-25T01:55:47;1.67;;;1.30;;
34982;SDS011;21187;50.976;13.720;2024-03-25T02:00:53;3.67;;;1.23;;
34982;SDS011;21187;50.976;13.720;2024-03-25T02:05:55;2.03;;;1.33;;
34982;SDS011;21187;50.976;13.720;2024-03-25T02:10:59;4.85;;;1.38;;
34982;SDS011;21187;50.976;13.720;2024-03-25T02:16:01;3.33;;;1.98;;
34982;SDS011;21187;50.976;13.720;2024-03-25T02:21:02;3.00;;;1.90;;
34982;SDS011;21187;50.976;13.720;2024-03-25T02:26:03;3.53;;;2.33;;
34982;SDS011;21187;50.976;13.720;2024-03-25T02:31:04;4.88;;;2.38;;
34982;SDS011;21187;50.976;13.720;2024-03-25T02:36:05;7.30;;;2.90;;
34982;SDS011;21187;50.976;13.720;2024-03-25T02:41:06;5.57;;;2.20;;
34982;SDS011;21187;50.976;13.720;2024-03-25T02:46:07;5.90;;;2.53;;
34982;SDS011;21187;50.976;13.720;2024-03-25T02:51:07;4.38;;;2.17;;
34982;SDS011;21187;50.976;13.720;2024-03-25T02:56:08;5.53;;;2.72;;
34982;SDS011;21187;50.976;13.720;2024-03-25T03:01:09;8.20;;;2.60;;
34982;SDS011;21187;50.976;13.720;2024-03-25T03:06:10;10.55;;;3.47;;
34982;SDS011;21187;50.976;13.720;2024-03-25T03:11:10;7.25;;;3.10;;
34982;SDS011;21187;50.976;13.720;2024-03-25T03:16:11;8.18;;;3.42;;
34982;SDS011;21187;50.976;13.720;2024-03-25T03:21:12;5.40;;;2.92;;
34982;SDS011;21187;50.976;13.720;2024-03-25T03:26:13;8.80;;;3.65;;
34982;SDS011;21187;50.976;13.720;2024-03-25T03:31:14;4.82;;;3.00;;
34982;SDS011;21187;50.976;13.720;2024-03-25T03:36:15;5.47;;;2.58;;
34982;SDS011;21187;50.976;13.720;2024-03-25T03:41:17;11.57;;;3.30;;
34982;SDS011;21187;50.976;13.720;2024-03-25T03:46:18;8.75;;;3.40;;
34982;SDS011;21187;50.976;13.720;2024-03-25T03:51:19;8.90;;;3.25;;
34982;SDS011;21187;50.976;13.720;2024-03-25T03:56:20;7.78;;;3.13;;
34982;SDS011;21187;50.976;13.720;2024-03-25T04:01:21;9.52;;;2.80;;
34982;SDS011;21187;50.976;13.720;2024-03-25T04:06:22;3.67;;;2.28;;
34982;SDS011;21187;50.976;13.720;2024-03-25T04:11:23;5.45;;;2.88;;
34982;SDS011;21187;50.976;13.720;2024-03-25T04:16:23;7.97;;;2.65;;
34982;SDS011;21187;50.976;13.720;2024-03-25T04:21:24;5.70;;;2.50;;
34982;SDS011;21187;50.976;13.720;2024-03-25T04:26:25;7.82;;;2.53;;
34982;SDS011;21187;50.976;13.720;2024-03-25T04:31:25;8.05;;;2.78;;
34982;SDS011;21187;50.976;13.720;2024-03-25T04:36:26;6.63;;;2.90;;
34982;SDS011;21187;50.976;13.720;2024-03-25T04:41:27;4.78;;;3.00;;
34982;SDS011;21187;50.976;13.720;2024-03-25T04:46:28;7.28;;;3.80;;
34982;SDS011;21187;50.976;13.720;2024-03-25T04:51:28;8.65;;;3.33;;
34982;SDS011;21187;50.976;13.720;2024-03-25T04:56:30;8.18;;;3.13;;
34982;SDS011;21187;50.976;13.720;2024-03-25T05:01:31;7.10;;;3.13;;
34982;SDS011;21187;50.976;13.720;2024-03-25T05:06:32;8.55;;;4.00;;
34982;SDS011;21187;50.976;13.720;2024-03-25T05:11:33;7.45;;;3.55;;
34982;SDS011;21187;50.976;13.720;2024-03-25T05:16:34;9.57;;;3.10;;
34982;SDS011;21187;50.976;13.720;2024-03-25T05:21:34;5.10;;;3.10;;
34982;SDS011;21187;50.976;13.720;2024-03-25T05:26:35;7.90;;;2.90;;
34982;SDS011;21187;50.976;13.720;2024-03-25T05:31:36;3.97;;;2.78;;
34982;SDS011;21187;50.976;13.720;2024-03-25T05:36:40;6.22;;;3.53;;
34982;SDS011;21187;50.976;13.720;2024-03-25T05:41:41;7.07;;;3.30;;
34982;SDS011;21187;50.976;13.720;2024-03-25T05:46:42;9.35;;;3.80;;
34982;SDS011;21187;50.976;13.720;2024-03-25T05:51:42;4.82;;;2.20;;
34982;SDS011;21187;50.976;13.720;2024-03-25T05:56:43;2.40;;;1.65;;
34982;SDS011;21187;50.976;13.720;2024-03-25T06:01:44;3.13;;;2.10;;
34982;SDS011;21187;50.976;13.720;2024-03-25T06:06:45;3.70;;;2.55;;
34982;SDS011;21187;50.976;13.720;2024-03-25T06:11:46;8.98;;;3.45;;
34982;SDS011;21187;50.976;13.720;2024-03-25T06:16:47;6.90;;;3.30;;
34982;SDS011;21187;50.976;13.720;2024-03-25T06:21:48;6.47;;;3.42;;
34982;SDS011;21187;50.976;13.720;2024-03-25T06:26:49;10.15;;;2.75;;
34982;SDS011;21187;50.976;13.720;2024-03-25T06:31:52;6.15;;;2.30;;
34982;SDS011;21187;50.976;13.720;2024-03-25T06:37:11;5.37;;;2.30;;
34982;SDS011;21187;50.976;13.720;2024-03-25T06:42:12;7.10;;;2.80;;
34982;SDS011;21187;50.976;13.720;2024-03-25T06:47:13;4.97;;;2.28;;
34982;SDS011;21187;50.976;13.720;2024-03-25T06:52:14;7.68;;;2.25;;
34982;SDS011;21187;50.976;13.720;2024-03-25T06:57:14;9.70;;;2.85;;
34982;SDS011;21187;50.976;13.720;2024-03-25T07:02:15;5.28;;;2.60;;
34982;SDS011;21187;50.976;13.720;2024-03-25T07:07:16;5.35;;;2.45;;
34982;SDS011;21187;50.976;13.720;2024-03-25T07:12:17;8.75;;;2.80;;
34982;SDS011;21187;50.976;13.720;2024-03-25T07:17:18;7.03;;;3.38;;
34982;SDS011;21187;50.976;13.720;2024-03-25T07:22:19;8.43;;;3.58;;
34982;SDS011;21187;50.976;13.720;2024-03-25T07:27:20;5.97;;;3.83;;
34982;SDS011;21187;50.976;13.720;2024-03-25T07:32:20;9.57;;;4.32;;
34982;SDS011;21187;50.976;13.720;2024-03-25T07:37:21;4.88;;;2.80;;
34982;SDS011;21187;50.976;13.720;2024-03-25T07:42:22;8.93;;;2.65;;
34982;SDS011;21187;50.976;13.720;2024-03-25T07:47:22;6.97;;;2.42;;
34982;SDS011;21187;50.976;13.720;2024-03-25T07:52:23;5.43;;;2.72;;
34982;SDS011;21187;50.976;13.720;2024-03-25T07:57:24;9.20;;;3.00;;
34982;SDS011;21187;50.976;13.720;2024-03-25T08:02:25;4.63;;;2.83;;
34982;SDS011;21187;50.976;13.720;2024-03-25T08:07:25;8.55;;;2.70;;
34982;SDS011;21187;50.976;13.720;2024-03-25T08:12:26;4.53;;;2.33;;
34982;SDS011;21187;50.976;13.720;2024-03-25T08:17:27;4.20;;;2.28;;
34982;SDS011;21187;50.976;13.720;2024-03-25T08:22:28;11.73;;;4.35;;
34982;SDS011;21187;50.976;13.720;2024-03-25T08:27:29;6.03;;;2.50;;
34982;SDS011;21187;50.976;13.720;2024-03-25T08:32:30;5.57;;;2.75;;
34982;SDS011;21187;50.976;13.720;2024-03-25T08:37:33;5.20;;;2.90;;
34982;SDS011;21187;50.976;13.720;2024-03-25T08:42:33;6.90;;;2.95;;
34982;SDS011;21187;50.976;13.720;2024-03-25T08:47:34;8.68;;;3.72;;
34982;SDS011;21187;50.976;13.720;2024-03-25T08:52:35;6.68;;;3.65;;
34982;SDS011;21187;50.976;13.720;2024-03-25T08:57:35;13.07;;;3.05;;
34982;SDS011;21187;50.976;13.720;2024-03-25T09:02:37;6.93;;;2.95;;
34982;SDS011;21187;50.976;13.720;2024-03-25T09:07:37;5.85;;;2.75;;
34982;SDS011;21187;50.976;13.720;2024-03-25T09:12:39;7.70;;;3.70;;
34982;SDS011;21187;50.976;13.720;2024-03-25T09:17:40;8.32;;;2.60;;
34982;SDS011;21187;50.976;13.720;2024-03-25T09:22:41;7.57;;;2.80;;
34982;SDS011;21187;50.976;13.720;2024-03-25T09:27:45;6.03;;;2.53;;
34982;SDS011;21187;50.976;13.720;2024-03-25T09:32:46;5.07;;;2.50;;
34982;SDS011;21187;50.976;13.720;2024-03-25T09:37:48;6.32;;;2.80;;
34982;SDS011;21187;50.976;13.720;2024-03-25T09:42:49;5.43;;;2.05;;
34982;SDS011;21187;50.976;13.720;2024-03-25T09:47:56;10.50;;;2.60;;
34982;SDS011;21187;50.976;13.720;2024-03-25T09:52:57;6.15;;;2.70;;
34982;SDS011;21187;50.976;13.720;2024-03-25T09:57:57;5.30;;;3.10;;
34982;SDS011;21187;50.976;13.720;2024-03-25T10:03:00;8.95;;;2.88;;
34982;SDS011;21187;50.976;13.720;2024-03-25T10:08:01;6.90;;;2.95;;
34982;SDS011;21187;50.976;13.720;2024-03-25T10:13:01;7.25;;;2.78;;
34982;SDS011;21187;50.976;13.720;2024-03-25T10:18:02;9.20;;;3.15;;
34982;SDS011;21187;50.976;13.720;2024-03-25T10:23:03;4.03;;;2.78;;
34982;SDS011;21187;50.976;13.720;2024-03-25T10:28:04;7.10;;;2.60;;
34982;SDS011;21187;50.976;13.720;2024-03-25T10:33:06;12.80;;;2.97;;
34982;SDS011;21187;50.976;13.720;2024-03-25T10:38:07;5.82;;;2.40;;
34982;SDS011;21187;50.976;13.720;2024-03-25T10:43:11;6.30;;;2.50;;
34982;SDS011;21187;50.976;13.720;2024-03-25T10:53:28;7.78;;;2.78;;
34982;SDS011;21187;50.976;13.720;2024-03-25T10:58:30;2.67;;;1.88;;
34982;SDS011;21187;50.976;13.720;2024-03-25T11:03:33;3.10;;;2.25;;
34982;SDS011;21187;50.976;13.720;2024-03-25T11:08:35;3.65;;;1.90;;
34982;SDS011;21187;50.976;13.720;2024-03-25T11:13:36;4.70;;;2.08;;
34982;SDS011;21187;50.976;13.720;2024-03-25T11:18:37;7.32;;;2.47;;
34982;SDS011;21187;50.976;13.720;2024-03-25T11:23:43;6.55;;;2.17;;
34982;SDS011;21187;50.976;13.720;2024-03-25T11:28:45;3.05;;;2.10;;
34982;SDS011;21187;50.976;13.720;2024-03-25T11:33:46;5.20;;;2.00;;
34982;SDS011;21187;50.976;13.720;2024-03-25T11:38:56;4.38;;;1.73;;
34982;SDS011;21187;50.976;13.720;2024-03-25T11:43:58;1.80;;;1.30;;
34982;SDS011;21187;50.976;13.720;2024-03-25T11:48:59;3.40;;;1.77;;
34982;SDS011;21187;50.976;13.720;2024-03-25T11:54:03;2.92;;;1.58;;
34982;SDS011;21187;50.976;13.720;2024-03-25T11:59:04;2.50;;;1.58;;
34982;SDS011;21187;50.976;13.720;2024-03-25T12:04:09;2.50;;;1.40;;
34982;SDS011;21187;50.976;13.720;2024-03-25T12:09:16;3.08;;;1.58;;
34982;SDS011;21187;50.976;13.720;2024-03-25T12:14:35;2.35;;;1.60;;
34982;SDS011;21187;50.976;13.720;2024-03-25T12:19:36;2.83;;;1.80;;
34982;SDS011;21187;50.976;13.720;2024-03-25T12:24:37;4.53;;;1.63;;
34982;SDS011;21187;50.976;13.720;2024-03-25T12:29:38;4.38;;;1.95;;
34982;SDS011;21187;50.976;13.720;2024-03-25T12:34:39;2.40;;;1.77;;
34982;SDS011;21187;50.976;13.720;2024-03-25T12:39:47;8.25;;;2.28;;
34982;SDS011;21187;50.976;13.720;2024-03-25T12:44:48;3.13;;;1.88;;
34982;SDS011;21187;50.976;13.720;2024-03-25T12:49:49;4.10;;;1.55;;
34982;SDS011;21187;50.976;13.720;2024-03-25T12:54:49;3.25;;;1.80;;
34982;SDS011;21187;50.976;13.720;2024-03-25T12:59:50;4.30;;;1.80;;
34982;SDS011;21187;50.976;13.720;2024-03-25T13:04:51;4.32;;;2.03;;
34982;SDS011;21187;50.976;13.720;2024-03-25T13:09:52;5.90;;;2.08;;
34982;SDS011;21187;50.976;13.720;2024-03-25T13:14:52;7.45;;;2.08;;
34982;SDS011;21187;50.976;13.720;2024-03-25T13:19:53;10.25;;;2.63;;
34982;SDS011;21187;50.976;13.720;2024-03-25T13:24:54;6.97;;;2.10;;
34982;SDS011;21187;50.976;13.720;2024-03-25T13:29:55;7.47;;;2.00;;
34982;SDS011;21187;50.976;13.720;2024-03-25T13:34:55;4.20;;;1.80;;
34982;SDS011;21187;50.976;13.720;2024-03-25T13:39:56;2.35;;;1.50;;
34982;SDS011;21187;50.976;13.720;2024-03-25T13:44:57;4.60;;;1.27;;
34982;SDS011;21187;50.976;13.720;2024-03-25T13:50:01;3.72;;;1.55;;
34982;SDS011;21187;50.976;13.720;2024-03-25T14:00:08;7.25;;;1.80;;
34982;SDS011;21187;50.976;13.720;2024-03-25T14:05:14;13.95;;;1.85;;
34982;SDS011;21187;50.976;13.720;2024-03-25T14:10:14;3.40;;;1.30;;
34982;SDS011;21187;50.976;13.720;2024-03-25T14:15:16;6.55;;;1.77;;
34982;SDS011;21187;50.976;13.720;2024-03-25T14:20:16;2.33;;;1.55;;
34982;SDS011;21187;50.976;13.720;2024-03-25T14:25:17;3.85;;;1.45;;
34982;SDS011;21187;50.976;13.720;2024-03-25T14:30:18;4.30;;;1.80;;
34982;SDS011;21187;50.976;13.720;2024-03-25T14:35:19;4.07;;;1.30;;
34982;SDS011;21187;50.976;13.720;2024-03-25T14:40:21;4.80;;;1.70;;
34982;SDS011;21187;50.976;13.720;2024-03-25T14:45:21;6.78;;;2.03;;
34982;SDS011;21187;50.976;13.720;2024-03-25T14:50:22;4.55;;;1.80;;
34982;SDS011;21187;50.976;13.720;2024-03-25T14:55:23;5.97;;;1.95;;
34982;SDS011;21187;50.976;13.720;2024-03-25T15:00:24;6.70;;;1.58;;
34982;SDS011;21187;50.976;13.720;2024-03-25T15:05:24;2.00;;;1.38;;
34982;SDS011;21187;50.976;13.720;2024-03-25T15:10:26;2.55;;;1.30;;
34982;SDS011;21187;50.976;13.720;2024-03-25T15:15:27;8.02;;;1.40;;
34982;SDS011;21187;50.976;13.720;2024-03-25T15:20:28;3.25;;;1.48;;
34982;SDS011;21187;50.976;13.720;2024-03-25T15:25:28;2.33;;;1.40;;
34982;SDS011;21187;50.976;13.720;2024-03-25T15:30:30;3.35;;;1.13;;
34982;SDS011;21187;50.976;13.720;2024-03-25T15:35:31;5.00;;;1.60;;
34982;SDS011;21187;50.976;13.720;2024-03-25T15:40:32;4.28;;;1.67;;
34982;SDS011;21187;50.976;13.720;2024-03-25T15:45:33;3.50;;;1.55;;
34982;SDS011;21187;50.976;13.720;2024-03-25T15:50:33;2.65;;;1.40;;
34982;SDS011;21187;50.976;13.720;2024-03-25T15:55:34;5.32;;;1.48;;
34982;SDS011;21187;50.976;13.720;2024-03-25T16:00:35;4.57;;;1.42;;
34982;SDS011;21187;50.976;13.720;2024-03-25T16:05:36;3.42;;;1.35;;
34982;SDS011;21187;50.976;13.720;2024-03-25T16:10:39;2.45;;;1.45;;
34982;SDS011;21187;50.976;13.720;2024-03-25T16:15:39;5.57;;;1.52;;
34982;SDS011;21187;50.976;13.720;2024-03-25T16:20:40;7.65;;;1.70;;
34982;SDS011;21187;50.976;13.720;2024-03-25T16:25:41;3.42;;;1.42;;
34982;SDS011;21187;50.976;13.720;2024-03-25T16:30:42;3.38;;;1.73;;
34982;SDS011;21187;50.976;13.720;2024-03-25T16:35:43;4.15;;;1.40;;
34982;SDS011;21187;50.976;13.720;2024-03-25T16:40:44;4.28;;;1.10;;
34982;SDS011;21187;50.976;13.720;2024-03-25T16:45:45;6.63;;;1.67;;
34982;SDS011;21187;50.976;13.720;2024-03-25T16:50:46;6.55;;;1.52;;
34982;SDS011;21187;50.976;13.720;2024-03-25T16:55:50;3.40;;;1.50;;
34982;SDS011;21187;50.976;13.720;2024-03-25T17:00:51;4.63;;;1.80;;
34982;SDS011;21187;50.976;13.720;2024-03-25T17:05:52;6.00;;;1.58;;
34982;SDS011;21187;50.976;13.720;2024-03-25T17:10:54;5.68;;;1.90;;
34982;SDS011;21187;50.976;13.720;2024-03-25T17:15:55;3.05;;;1.92;;
34982;SDS011;21187;50.976;13.720;2024-03-25T17:20:59;7.68;;;2.17;;
34982;SDS011;21187;50.976;13.720;2024-03-25T17:26:04;3.35;;;1.73;;
34982;SDS011;21187;50.976;13.720;2024-03-25T17:31:08;7.72;;;1.85;;
34982;SDS011;21187;50.976;13.720;2024-03-25T17:36:10;4.38;;;1.90;;
34982;SDS011;21187;50.976;13.720;2024-03-25T17:41:12;10.40;;;2.30;;
34982;SDS011;21187;50.976;13.720;2024-03-25T17:46:12;7.20;;;2.85;;
34982;SDS011;21187;50.976;13.720;2024-03-25T17:51:13;10.38;;;3.35;;
34982;SDS011;21187;50.976;13.720;2024-03-25T17:56:15;9.85;;;2.85;;
34982;SDS011;21187;50.976;13.720;2024-03-25T18:01:16;6.78;;;2.75;;
34982;SDS011;21187;50.976;13.720;2024-03-25T18:06:16;12.05;;;3.17;;
34982;SDS011;21187;50.976;13.720;2024-03-25T18:11:17;16.92;;;5.07;;
34982;SDS011;21187;50.976;13.720;2024-03-25T18:16:18;17.50;;;5.75;;
34982;SDS011;21187;50.976;13.720;2024-03-25T18:21:19;17.58;;;6.10;;
34982;SDS011;21187;50.976;13.720;2024-03-25T18:26:20;11.23;;;5.53;;
34982;SDS011;21187;50.976;13.720;2024-03-25T18:31:21;11.90;;;5.00;;
34982;SDS011;21187;50.976;13.720;2024-03-25T18:36:22;14.30;;;6.15;;
34982;SDS011;21187;50.976;13.720;2024-03-25T18:41:23;13.07;;;5.35;;
34982;SDS011;21187;50.976;13.720;2024-03-25T18:46:24;13.50;;;5.97;;
34982;SDS011;21187;50.976;13.720;2024-03-25T18:51:25;39.25;;;11.20;;
34982;SDS011;21187;50.976;13.720;2024-03-25T18:56:27;59.92;;;15.90;;
34982;SDS011;21187;50.976;13.720;2024-03-25T19:01:28;37.88;;;12.68;;
34982;SDS011;21187;50.976;13.720;2024-03-25T19:06:29;28.75;;;9.15;;
34982;SDS011;21187;50.976;13.720;2024-03-25T19:11:30;26.35;;;9.23;;
34982;SDS011;21187;50.976;13.720;2024-03-25T19:16:31;18.10;;;8.70;;
34982;SDS011;21187;50.976;13.720;2024-03-25T19:21:32;25.10;;;8.77;;
34982;SDS011;21187;50.976;13.720;2024-03-25T19:26:33;29.13;;;12.57;;
34982;SDS011;21187;50.976;13.720;2024-03-25T19:31:33;23.48;;;11.65;;
34982;SDS011;21187;50.976;13.720;2024-03-25T19:36:34;20.80;;;11.00;;
34982;SDS011;21187;50.976;13.720;2024-03-25T19:41:35;16.48;;;9.00;;
34982;SDS011;21187;50.976;13.720;2024-03-25T19:46:36;15.23;;;8.77;;
34982;SDS011;21187;50.976;13.720;2024-03-25T19:51:37;15.82;;;7.10;;
34982;SDS011;21187;50.976;13.720;2024-03-25T19:56:38;11.43;;;6.50;;
34982;SDS011;21187;50.976;13.720;2024-03-25T20:01:38;21.90;;;8.70;;
34982;SDS011;21187;50.976;13.720;2024-03-25T20:06:39;30.00;;;11.43;;
34982;SDS011;21187;50.976;13.720;2024-03-25T20:11:40;12.57;;;5.28;;
34982;SDS011;21187;50.976;13.720;2024-03-25T20:16:41;14.07;;;4.63;;
34982;SDS011;21187;50.976;13.720;2024-03-25T20:21:42;10.20;;;3.72;;
34982;SDS011;21187;50.976;13.720;2024-03-25T20:26:44;8.27;;;3.97;;
34982;SDS011;21187;50.976;13.720;2024-03-25T20:31:46;7.63;;;4.00;;
34982;SDS011;21187;50.976;13.720;2024-03-25T20:36:47;6.72;;;4.07;;
34982;SDS011;21187;50.976;13.720;2024-03-25T20:41:47;8.30;;;4.30;;
34982;SDS011;21187;50.976;13.720;2024-03-25T20:46:48;10.38;;;4.70;;
34982;SDS011;21187;50.976;13.720;2024-03-25T20:51:49;12.13;;;5.63;;
34982;SDS011;21187;50.976;13.720;2024-03-25T20:56:50;22.35;;;9.68;;
34982;SDS011;21187;50.976;13.720;2024-03-25T21:01:51;32.67;;;14.38;;
34982;SDS011;21187;50.976;13.720;2024-03-25T21:06:51;39.05;;;14.45;;
34982;SDS011;21187;50.976;13.720;2024-03-25T21:11:52;28.15;;;11.45;;
34982;SDS011;21187;50.976;13.720;2024-03-25T21:16:53;18.38;;;8.38;;
34982;SDS011;21187;50.976;13.720;2024-03-25T21:21:54;18.45;;;6.80;;
34982;SDS011;21187;50.976;13.720;2024-03-25T21:26:54;15.35;;;6.57;;
34982;SDS011;21187;50.976;13.720;2024-03-25T21:31:55;17.48;;;8.05;;
34982;SDS011;21187;50.976;13.720;2024-03-25T21:36:56;17.33;;;5.85;;
34982;SDS011;21187;50.976;13.720;2024-03-25T21:41:57;11.35;;;4.65;;
34982;SDS011;21187;50.976;13.720;2024-03-25T21:46:57;9.38;;;4.13;;
34982;SDS011;21187;50.976;13.720;2024-03-25T21:51:58;7.55;;;3.50;;
34982;SDS011;21187;50.976;13.720;2024-03-25T21:56:59;7.32;;;3.00;;
34982;SDS011;21187;50.976;13.720;2024-03-25T22:02:00;5.82;;;3.15;;
34982;SDS011;21187;50.976;13.720;2024-03-25T22:07:01;4.97;;;3.00;;
34982;SDS011;21187;50.976;13.720;2024-03-25T22:12:02;8.18;;;3.13;;
34982;SDS011;21187;50.976;13.720;2024-03-25T22:17:03;6.00;;;2.85;;
34982;SDS011;21187;50.976;13.720;2024-03-25T22:22:03;8.63;;;3.25;;
34982;SDS011;21187;50.976;13.720;2024-03-25T22:27:04;5.65;;;2.47;;
34982;SDS011;21187;50.976;13.720;2024-03-25T22:32:05;6.25;;;3.47;;
34982;SDS011;21187;50.976;13.720;2024-03-25T22:37:07;9.50;;;3.30;;
34982;SDS011;21187;50.976;13.720;2024-03-25T22:42:08;6.03;;;2.75;;
34982;SDS011;21187;50.976;13.720;2024-03-25T22:47:09;13.38;;;6.22;;
34982;SDS011;21187;50.976;13.720;2024-03-25T22:52:10;8.35;;;4.13;;
34982;SDS011;21187;50.976;13.720;2024-03-25T22:57:11;9.45;;;3.90;;
34982;SDS011;21187;50.976;13.720;2024-03-25T23:02:12;8.02;;;4.22;;
34982;SDS011;21187;50.976;13.720;2024-03-25T23:07:12;12.77;;;4.82;;
34982;SDS011;21187;50.976;13.720;2024-03-25T23:12:14;17.98;;;5.85;;
34982;SDS011;21187;50.976;13.720;2024-03-25T23:17:15;9.30;;;4.22;;
34982;SDS011;21187;50.976;13.720;2024-03-25T23:22:16;10.52;;;4.05;;
34982;SDS011;21187;50.976;13.720;2024-03-25T23:27:16;11.77;;;5.35;;
34982;SDS011;21187;50.976;13.720;2024-03-25T23:32:17;13.93;;;6.10;;
34982;SDS011;21187;50.976;13.720;2024-03-25T23:37:18;21.45;;;9.48;;
34982;SDS011;21187;50.976;13.720;2024-03-25T23:42:19;21.45;;;6.85;;
34982;SDS011;21187;50.976;13.720;2024-03-25T23:47:20;12.63;;;4.45;;
34982;SDS011;21187;50.976;13.720;2024-03-25T23:52:20;9.90;;;4.32;;
34982;SDS011;21187;50.976;13.720;2024-03-25T23:57:21;7.10;;;3.28;;
